sensor_id;sensor_type;location;lat;lon;timestamp;P1;durP1;ratioP1;P2;durP2;ratioP2
44169;SDS011;29836;52.286;9.576;2022-12-07T00:02:04;32.83;;;10.88;;
44169;SDS011;29836;52.286;9.576;2022-12-07T00:04:29;21.60;;;10.30;;
44169;SDS011;29836;52.286;9.576;2022-12-07T00:06:55;26.38;;;11.43;;
44169;SDS011;29836;52.286;9.576;2022-12-07T00:09:20;26.27;;;10.70;;
44169;SDS011;29836;52.286;9.576;2022-12-07T00:11:48;27.80;;;10.98;;
44169;SDS011;29836;52.286;9.576;2022-12-07T00:14:15;20.45;;;10.90;;
44169;SDS011;29836;52.286;9.576;2022-12-07T00:16:42;19.23;;;9.88;;
44169;SDS011;29836;52.286;9.576;2022-12-07T00:19:09;22.05;;;10.40;;
44169;SDS011;29836;52.286;9.576;2022-12-07T00:21:36;24.67;;;11.43;;
44169;SDS011;29836;52.286;9.576;2022-12-07T00:24:02;21.13;;;10.50;;
44169;SDS011;29836;52.286;9.576;2022-12-07T00:26:30;20.52;;;9.52;;
44169;SDS011;29836;52.286;9.576;2022-12-07T00:29:01;20.55;;;10.32;;
44169;SDS011;29836;52.286;9.576;2022-12-07T00:31:29;17.73;;;8.82;;
44169;SDS011;29836;52.286;9.576;2022-12-07T00:33:58;17.20;;;9.18;;
44169;SDS011;29836;52.286;9.576;2022-12-07T00:36:24;15.82;;;8.93;;
44169;SDS011;29836;52.286;9.576;2022-12-07T00:38:50;17.48;;;8.80;;
44169;SDS011;29836;52.286;9.576;2022-12-07T00:41:17;15.07;;;7.93;;
44169;SDS011;29836;52.286;9.576;2022-12-07T00:43:45;14.63;;;7.78;;
44169;SDS011;29836;52.286;9.576;2022-12-07T00:46:11;16.00;;;7.60;;
44169;SDS011;29836;52.286;9.576;2022-12-07T00:48:37;15.10;;;9.55;;
44169;SDS011;29836;52.286;9.576;2022-12-07T00:51:03;16.60;;;8.82;;
44169;SDS011;29836;52.286;9.576;2022-12-07T00:53:30;18.02;;;8.18;;
44169;SDS011;29836;52.286;9.576;2022-12-07T00:55:58;18.63;;;8.35;;
44169;SDS011;29836;52.286;9.576;2022-12-07T00:58:33;19.58;;;8.38;;
44169;SDS011;29836;52.286;9.576;2022-12-07T01:01:02;16.50;;;8.02;;
44169;SDS011;29836;52.286;9.576;2022-12-07T01:03:28;22.08;;;9.77;;
44169;SDS011;29836;52.286;9.576;2022-12-07T01:05:55;19.67;;;8.93;;
44169;SDS011;29836;52.286;9.576;2022-12-07T01:08:21;17.52;;;9.05;;
44169;SDS011;29836;52.286;9.576;2022-12-07T01:10:48;14.48;;;7.97;;
44169;SDS011;29836;52.286;9.576;2022-12-07T01:13:14;18.55;;;8.90;;
44169;SDS011;29836;52.286;9.576;2022-12-07T01:15:40;16.13;;;9.65;;
44169;SDS011;29836;52.286;9.576;2022-12-07T01:18:07;15.48;;;8.05;;
44169;SDS011;29836;52.286;9.576;2022-12-07T01:20:33;15.82;;;8.95;;
44169;SDS011;29836;52.286;9.576;2022-12-07T01:22:58;14.70;;;8.43;;
44169;SDS011;29836;52.286;9.576;2022-12-07T01:25:24;19.17;;;8.73;;
44169;SDS011;29836;52.286;9.576;2022-12-07T01:27:50;15.93;;;8.73;;
44169;SDS011;29836;52.286;9.576;2022-12-07T01:30:15;16.83;;;9.20;;
44169;SDS011;29836;52.286;9.576;2022-12-07T01:32:41;18.42;;;9.40;;
44169;SDS011;29836;52.286;9.576;2022-12-07T01:35:07;19.38;;;8.30;;
44169;SDS011;29836;52.286;9.576;2022-12-07T01:37:36;17.15;;;9.07;;
44169;SDS011;29836;52.286;9.576;2022-12-07T01:40:04;15.60;;;8.05;;
44169;SDS011;29836;52.286;9.576;2022-12-07T01:42:31;14.18;;;7.80;;
44169;SDS011;29836;52.286;9.576;2022-12-07T01:47:44;16.55;;;8.60;;
44169;SDS011;29836;52.286;9.576;2022-12-07T01:50:13;20.00;;;9.45;;
44169;SDS011;29836;52.286;9.576;2022-12-07T01:52:39;14.38;;;9.02;;
44169;SDS011;29836;52.286;9.576;2022-12-07T01:55:09;18.70;;;9.30;;
44169;SDS011;29836;52.286;9.576;2022-12-07T01:57:42;18.20;;;9.20;;
44169;SDS011;29836;52.286;9.576;2022-12-07T02:00:11;19.80;;;8.65;;
44169;SDS011;29836;52.286;9.576;2022-12-07T02:02:38;19.90;;;8.80;;
44169;SDS011;29836;52.286;9.576;2022-12-07T02:05:10;15.57;;;7.82;;
44169;SDS011;29836;52.286;9.576;2022-12-07T02:07:36;15.75;;;7.78;;
44169;SDS011;29836;52.286;9.576;2022-12-07T02:10:16;19.60;;;9.20;;
44169;SDS011;29836;52.286;9.576;2022-12-07T02:12:58;19.27;;;9.23;;
44169;SDS011;29836;52.286;9.576;2022-12-07T02:18:21;15.27;;;7.68;;
44169;SDS011;29836;52.286;9.576;2022-12-07T02:21:00;15.85;;;6.45;;
44169;SDS011;29836;52.286;9.576;2022-12-07T02:31:42;14.27;;;8.38;;
44169;SDS011;29836;52.286;9.576;2022-12-07T02:36:46;19.33;;;8.88;;
44169;SDS011;29836;52.286;9.576;2022-12-07T02:39:39;15.00;;;7.35;;
44169;SDS011;29836;52.286;9.576;2022-12-07T02:42:12;15.05;;;7.70;;
44169;SDS011;29836;52.286;9.576;2022-12-07T02:44:42;15.60;;;7.55;;
44169;SDS011;29836;52.286;9.576;2022-12-07T02:47:10;14.27;;;8.13;;
44169;SDS011;29836;52.286;9.576;2022-12-07T02:49:40;14.35;;;7.50;;
44169;SDS011;29836;52.286;9.576;2022-12-07T02:52:06;15.38;;;8.48;;
44169;SDS011;29836;52.286;9.576;2022-12-07T02:54:32;17.95;;;8.40;;
44169;SDS011;29836;52.286;9.576;2022-12-07T02:57:14;17.10;;;7.80;;
44169;SDS011;29836;52.286;9.576;2022-12-07T03:02:50;17.63;;;8.27;;
44169;SDS011;29836;52.286;9.576;2022-12-07T03:13:42;14.27;;;7.40;;
44169;SDS011;29836;52.286;9.576;2022-12-07T03:16:23;19.85;;;9.10;;
44169;SDS011;29836;52.286;9.576;2022-12-07T03:19:06;13.75;;;6.57;;
44169;SDS011;29836;52.286;9.576;2022-12-07T03:21:37;14.60;;;7.22;;
44169;SDS011;29836;52.286;9.576;2022-12-07T03:24:14;13.35;;;6.35;;
44169;SDS011;29836;52.286;9.576;2022-12-07T03:26:47;12.60;;;5.43;;
44169;SDS011;29836;52.286;9.576;2022-12-07T03:29:19;13.40;;;5.30;;
44169;SDS011;29836;52.286;9.576;2022-12-07T03:31:51;13.50;;;5.40;;
44169;SDS011;29836;52.286;9.576;2022-12-07T03:34:26;18.83;;;5.80;;
44169;SDS011;29836;52.286;9.576;2022-12-07T03:37:06;12.60;;;6.15;;
44169;SDS011;29836;52.286;9.576;2022-12-07T03:39:51;13.82;;;6.70;;
44169;SDS011;29836;52.286;9.576;2022-12-07T03:42:31;10.32;;;6.03;;
44169;SDS011;29836;52.286;9.576;2022-12-07T03:44:58;13.40;;;5.28;;
44169;SDS011;29836;52.286;9.576;2022-12-07T03:50:21;11.20;;;4.38;;
44169;SDS011;29836;52.286;9.576;2022-12-07T03:52:54;10.88;;;5.10;;
44169;SDS011;29836;52.286;9.576;2022-12-07T03:55:27;19.67;;;7.28;;
44169;SDS011;29836;52.286;9.576;2022-12-07T03:57:58;12.90;;;5.45;;
44169;SDS011;29836;52.286;9.576;2022-12-07T04:00:27;12.65;;;5.68;;
44169;SDS011;29836;52.286;9.576;2022-12-07T04:02:53;11.15;;;5.03;;
44169;SDS011;29836;52.286;9.576;2022-12-07T04:05:20;11.95;;;6.03;;
44169;SDS011;29836;52.286;9.576;2022-12-07T04:07:45;13.02;;;6.75;;
44169;SDS011;29836;52.286;9.576;2022-12-07T04:10:11;14.20;;;6.75;;
44169;SDS011;29836;52.286;9.576;2022-12-07T04:12:37;14.43;;;7.43;;
44169;SDS011;29836;52.286;9.576;2022-12-07T04:15:03;15.40;;;5.68;;
44169;SDS011;29836;52.286;9.576;2022-12-07T04:17:29;15.40;;;6.72;;
44169;SDS011;29836;52.286;9.576;2022-12-07T04:19:54;13.95;;;6.30;;
44169;SDS011;29836;52.286;9.576;2022-12-07T04:22:20;13.10;;;6.53;;
44169;SDS011;29836;52.286;9.576;2022-12-07T04:24:46;18.58;;;6.65;;
44169;SDS011;29836;52.286;9.576;2022-12-07T04:27:11;18.35;;;6.25;;
44169;SDS011;29836;52.286;9.576;2022-12-07T04:29:37;9.90;;;5.18;;
44169;SDS011;29836;52.286;9.576;2022-12-07T04:32:02;14.35;;;6.40;;
44169;SDS011;29836;52.286;9.576;2022-12-07T04:34:28;13.73;;;6.05;;
44169;SDS011;29836;52.286;9.576;2022-12-07T04:36:54;14.02;;;5.95;;
44169;SDS011;29836;52.286;9.576;2022-12-07T04:39:21;10.57;;;4.55;;
44169;SDS011;29836;52.286;9.576;2022-12-07T04:41:51;11.02;;;4.95;;
44169;SDS011;29836;52.286;9.576;2022-12-07T04:44:17;13.57;;;5.85;;
44169;SDS011;29836;52.286;9.576;2022-12-07T04:46:43;9.20;;;4.35;;
44169;SDS011;29836;52.286;9.576;2022-12-07T04:49:09;11.40;;;5.05;;
44169;SDS011;29836;52.286;9.576;2022-12-07T04:51:36;12.60;;;4.43;;
44169;SDS011;29836;52.286;9.576;2022-12-07T04:54:02;7.13;;;4.28;;
44169;SDS011;29836;52.286;9.576;2022-12-07T04:56:27;8.35;;;3.72;;
44169;SDS011;29836;52.286;9.576;2022-12-07T04:58:53;9.73;;;4.60;;
44169;SDS011;29836;52.286;9.576;2022-12-07T05:01:20;11.18;;;4.05;;
44169;SDS011;29836;52.286;9.576;2022-12-07T05:03:46;14.02;;;3.40;;
44169;SDS011;29836;52.286;9.576;2022-12-07T05:06:12;6.68;;;3.42;;
44169;SDS011;29836;52.286;9.576;2022-12-07T05:08:39;6.78;;;3.83;;
44169;SDS011;29836;52.286;9.576;2022-12-07T05:11:05;6.57;;;3.25;;
44169;SDS011;29836;52.286;9.576;2022-12-07T05:13:32;8.93;;;4.15;;
44169;SDS011;29836;52.286;9.576;2022-12-07T05:15:58;6.88;;;3.47;;
44169;SDS011;29836;52.286;9.576;2022-12-07T05:18:23;6.88;;;3.30;;
44169;SDS011;29836;52.286;9.576;2022-12-07T05:20:49;15.25;;;3.92;;
44169;SDS011;29836;52.286;9.576;2022-12-07T05:23:16;10.10;;;4.53;;
44169;SDS011;29836;52.286;9.576;2022-12-07T05:25:42;5.68;;;3.47;;
44169;SDS011;29836;52.286;9.576;2022-12-07T05:28:07;6.20;;;3.78;;
44169;SDS011;29836;52.286;9.576;2022-12-07T05:30:33;8.80;;;3.40;;
44169;SDS011;29836;52.286;9.576;2022-12-07T05:32:59;5.68;;;2.97;;
44169;SDS011;29836;52.286;9.576;2022-12-07T05:35:24;9.32;;;2.65;;
44169;SDS011;29836;52.286;9.576;2022-12-07T05:37:50;7.22;;;2.85;;
44169;SDS011;29836;52.286;9.576;2022-12-07T05:40:15;7.80;;;3.55;;
44169;SDS011;29836;52.286;9.576;2022-12-07T05:42:41;10.13;;;3.50;;
44169;SDS011;29836;52.286;9.576;2022-12-07T05:45:08;11.38;;;3.92;;
44169;SDS011;29836;52.286;9.576;2022-12-07T05:47:35;6.57;;;3.75;;
44169;SDS011;29836;52.286;9.576;2022-12-07T05:50:01;7.22;;;3.00;;
44169;SDS011;29836;52.286;9.576;2022-12-07T05:52:26;10.00;;;3.33;;
44169;SDS011;29836;52.286;9.576;2022-12-07T05:54:52;12.43;;;3.72;;
44169;SDS011;29836;52.286;9.576;2022-12-07T05:57:18;6.13;;;3.30;;
44169;SDS011;29836;52.286;9.576;2022-12-07T05:59:43;5.78;;;3.40;;
44169;SDS011;29836;52.286;9.576;2022-12-07T06:02:10;5.85;;;2.55;;
44169;SDS011;29836;52.286;9.576;2022-12-07T06:04:39;11.82;;;3.53;;
44169;SDS011;29836;52.286;9.576;2022-12-07T06:07:07;7.00;;;3.60;;
44169;SDS011;29836;52.286;9.576;2022-12-07T06:09:33;5.05;;;2.70;;
44169;SDS011;29836;52.286;9.576;2022-12-07T06:11:59;6.90;;;3.55;;
44169;SDS011;29836;52.286;9.576;2022-12-07T06:14:44;9.27;;;4.20;;
44169;SDS011;29836;52.286;9.576;2022-12-07T06:17:10;6.88;;;3.95;;
44169;SDS011;29836;52.286;9.576;2022-12-07T06:19:37;7.20;;;3.95;;
44169;SDS011;29836;52.286;9.576;2022-12-07T06:22:02;6.30;;;3.05;;
44169;SDS011;29836;52.286;9.576;2022-12-07T06:24:29;7.00;;;3.55;;
44169;SDS011;29836;52.286;9.576;2022-12-07T06:26:55;4.97;;;2.92;;
44169;SDS011;29836;52.286;9.576;2022-12-07T06:29:20;4.68;;;3.28;;
44169;SDS011;29836;52.286;9.576;2022-12-07T06:31:47;7.70;;;2.92;;
44169;SDS011;29836;52.286;9.576;2022-12-07T06:34:13;5.55;;;2.55;;
44169;SDS011;29836;52.286;9.576;2022-12-07T06:36:41;4.75;;;3.30;;
44169;SDS011;29836;52.286;9.576;2022-12-07T06:39:06;4.25;;;2.83;;
44169;SDS011;29836;52.286;9.576;2022-12-07T06:41:34;7.93;;;2.88;;
44169;SDS011;29836;52.286;9.576;2022-12-07T06:44:01;7.10;;;3.13;;
44169;SDS011;29836;52.286;9.576;2022-12-07T06:46:26;7.10;;;2.70;;
44169;SDS011;29836;52.286;9.576;2022-12-07T06:48:52;6.38;;;2.33;;
44169;SDS011;29836;52.286;9.576;2022-12-07T06:51:17;4.22;;;3.08;;
44169;SDS011;29836;52.286;9.576;2022-12-07T06:53:43;4.35;;;2.92;;
44169;SDS011;29836;52.286;9.576;2022-12-07T06:56:09;3.30;;;2.10;;
44169;SDS011;29836;52.286;9.576;2022-12-07T06:58:35;3.28;;;1.98;;
44169;SDS011;29836;52.286;9.576;2022-12-07T07:01:00;4.57;;;2.67;;
44169;SDS011;29836;52.286;9.576;2022-12-07T07:03:26;7.57;;;2.67;;
44169;SDS011;29836;52.286;9.576;2022-12-07T07:05:51;6.05;;;2.08;;
44169;SDS011;29836;52.286;9.576;2022-12-07T07:08:17;6.07;;;2.40;;
44169;SDS011;29836;52.286;9.576;2022-12-07T07:10:43;4.07;;;1.92;;
44169;SDS011;29836;52.286;9.576;2022-12-07T07:13:08;4.60;;;2.00;;
44169;SDS011;29836;52.286;9.576;2022-12-07T07:15:34;3.35;;;1.70;;
44169;SDS011;29836;52.286;9.576;2022-12-07T07:18:02;3.20;;;1.88;;
44169;SDS011;29836;52.286;9.576;2022-12-07T07:20:29;5.13;;;3.00;;
44169;SDS011;29836;52.286;9.576;2022-12-07T07:22:55;3.25;;;2.00;;
44169;SDS011;29836;52.286;9.576;2022-12-07T07:25:21;5.60;;;2.83;;
44169;SDS011;29836;52.286;9.576;2022-12-07T07:27:46;6.53;;;2.33;;
44169;SDS011;29836;52.286;9.576;2022-12-07T07:30:12;5.55;;;2.28;;
44169;SDS011;29836;52.286;9.576;2022-12-07T07:32:38;5.32;;;1.90;;
44169;SDS011;29836;52.286;9.576;2022-12-07T07:35:04;7.32;;;2.50;;
44169;SDS011;29836;52.286;9.576;2022-12-07T07:37:30;5.25;;;2.10;;
44169;SDS011;29836;52.286;9.576;2022-12-07T07:39:55;3.22;;;1.75;;
44169;SDS011;29836;52.286;9.576;2022-12-07T07:42:21;5.00;;;1.80;;
44169;SDS011;29836;52.286;9.576;2022-12-07T07:44:47;2.97;;;1.60;;
44169;SDS011;29836;52.286;9.576;2022-12-07T07:47:12;8.63;;;2.67;;
44169;SDS011;29836;52.286;9.576;2022-12-07T07:49:38;3.85;;;1.88;;
44169;SDS011;29836;52.286;9.576;2022-12-07T07:52:04;5.65;;;2.40;;
44169;SDS011;29836;52.286;9.576;2022-12-07T07:54:31;4.65;;;1.90;;
44169;SDS011;29836;52.286;9.576;2022-12-07T07:56:57;2.92;;;1.90;;
44169;SDS011;29836;52.286;9.576;2022-12-07T07:59:22;4.38;;;1.90;;
44169;SDS011;29836;52.286;9.576;2022-12-07T08:01:48;3.75;;;1.58;;
44169;SDS011;29836;52.286;9.576;2022-12-07T08:04:14;5.30;;;2.08;;
44169;SDS011;29836;52.286;9.576;2022-12-07T08:06:39;4.30;;;1.50;;
44169;SDS011;29836;52.286;9.576;2022-12-07T08:09:07;6.05;;;2.47;;
44169;SDS011;29836;52.286;9.576;2022-12-07T08:11:33;3.80;;;1.80;;
44169;SDS011;29836;52.286;9.576;2022-12-07T08:13:59;5.72;;;1.40;;
44169;SDS011;29836;52.286;9.576;2022-12-07T08:16:24;5.10;;;2.10;;
44169;SDS011;29836;52.286;9.576;2022-12-07T08:18:50;3.40;;;1.88;;
44169;SDS011;29836;52.286;9.576;2022-12-07T08:21:16;2.92;;;1.77;;
44169;SDS011;29836;52.286;9.576;2022-12-07T08:23:42;3.05;;;1.58;;
44169;SDS011;29836;52.286;9.576;2022-12-07T08:26:10;4.10;;;1.67;;
44169;SDS011;29836;52.286;9.576;2022-12-07T08:28:40;3.58;;;1.85;;
44169;SDS011;29836;52.286;9.576;2022-12-07T08:31:13;3.22;;;1.45;;
44169;SDS011;29836;52.286;9.576;2022-12-07T08:33:40;4.13;;;1.90;;
44169;SDS011;29836;52.286;9.576;2022-12-07T08:36:07;3.10;;;1.40;;
44169;SDS011;29836;52.286;9.576;2022-12-07T08:38:34;5.63;;;1.83;;
44169;SDS011;29836;52.286;9.576;2022-12-07T08:41:01;3.03;;;1.30;;
44169;SDS011;29836;52.286;9.576;2022-12-07T08:43:27;4.65;;;1.65;;
44169;SDS011;29836;52.286;9.576;2022-12-07T08:45:55;7.45;;;1.58;;
44169;SDS011;29836;52.286;9.576;2022-12-07T08:48:33;1.75;;;1.00;;
44169;SDS011;29836;52.286;9.576;2022-12-07T08:51:01;2.25;;;1.00;;
44169;SDS011;29836;52.286;9.576;2022-12-07T08:53:27;7.05;;;1.70;;
44169;SDS011;29836;52.286;9.576;2022-12-07T08:55:53;6.82;;;1.60;;
44169;SDS011;29836;52.286;9.576;2022-12-07T08:58:19;1.20;;;1.00;;
44169;SDS011;29836;52.286;9.576;2022-12-07T09:00:44;3.00;;;1.23;;
44169;SDS011;29836;52.286;9.576;2022-12-07T09:03:10;3.50;;;1.67;;
44169;SDS011;29836;52.286;9.576;2022-12-07T09:05:35;9.85;;;1.80;;
44169;SDS011;29836;52.286;9.576;2022-12-07T09:08:01;2.72;;;1.15;;
44169;SDS011;29836;52.286;9.576;2022-12-07T09:10:27;3.08;;;1.15;;
44169;SDS011;29836;52.286;9.576;2022-12-07T09:12:54;2.67;;;1.35;;
44169;SDS011;29836;52.286;9.576;2022-12-07T09:15:19;2.13;;;1.20;;
44169;SDS011;29836;52.286;9.576;2022-12-07T09:17:45;5.43;;;1.52;;
44169;SDS011;29836;52.286;9.576;2022-12-07T09:20:11;2.63;;;1.50;;
44169;SDS011;29836;52.286;9.576;2022-12-07T09:22:36;2.28;;;1.20;;
44169;SDS011;29836;52.286;9.576;2022-12-07T09:25:03;1.73;;;1.10;;
44169;SDS011;29836;52.286;9.576;2022-12-07T09:27:29;4.68;;;1.48;;
44169;SDS011;29836;52.286;9.576;2022-12-07T09:29:55;2.83;;;1.52;;
44169;SDS011;29836;52.286;9.576;2022-12-07T09:32:21;7.38;;;1.35;;
44169;SDS011;29836;52.286;9.576;2022-12-07T09:34:47;1.65;;;1.00;;
44169;SDS011;29836;52.286;9.576;2022-12-07T09:37:12;3.88;;;1.25;;
44169;SDS011;29836;52.286;9.576;2022-12-07T09:39:38;3.72;;;1.00;;
44169;SDS011;29836;52.286;9.576;2022-12-07T09:42:04;3.03;;;1.73;;
44169;SDS011;29836;52.286;9.576;2022-12-07T09:44:32;4.68;;;1.25;;
44169;SDS011;29836;52.286;9.576;2022-12-07T09:46:58;1.25;;;0.88;;
44169;SDS011;29836;52.286;9.576;2022-12-07T09:49:25;8.35;;;1.02;;
44169;SDS011;29836;52.286;9.576;2022-12-07T09:52:01;1.75;;;1.20;;
44169;SDS011;29836;52.286;9.576;2022-12-07T09:54:34;2.00;;;0.93;;
44169;SDS011;29836;52.286;9.576;2022-12-07T09:57:02;2.10;;;0.77;;
44169;SDS011;29836;52.286;9.576;2022-12-07T09:59:28;4.63;;;1.25;;
44169;SDS011;29836;52.286;9.576;2022-12-07T10:01:54;1.27;;;0.88;;
44169;SDS011;29836;52.286;9.576;2022-12-07T10:04:26;0.75;;;0.60;;
44169;SDS011;29836;52.286;9.576;2022-12-07T10:06:53;1.60;;;1.00;;
44169;SDS011;29836;52.286;9.576;2022-12-07T10:09:19;4.85;;;1.40;;
44169;SDS011;29836;52.286;9.576;2022-12-07T10:14:34;3.78;;;0.98;;
44169;SDS011;29836;52.286;9.576;2022-12-07T10:17:02;2.28;;;1.23;;
44169;SDS011;29836;52.286;9.576;2022-12-07T10:19:48;1.27;;;0.75;;
44169;SDS011;29836;52.286;9.576;2022-12-07T10:22:16;5.45;;;1.58;;
44169;SDS011;29836;52.286;9.576;2022-12-07T10:24:43;3.08;;;1.25;;
44169;SDS011;29836;52.286;9.576;2022-12-07T10:27:19;1.77;;;1.05;;
44169;SDS011;29836;52.286;9.576;2022-12-07T10:29:54;1.42;;;0.80;;
44169;SDS011;29836;52.286;9.576;2022-12-07T10:34:45;2.67;;;1.05;;
44169;SDS011;29836;52.286;9.576;2022-12-07T10:37:15;4.43;;;1.35;;
44169;SDS011;29836;52.286;9.576;2022-12-07T10:39:47;1.48;;;0.95;;
44169;SDS011;29836;52.286;9.576;2022-12-07T10:42:17;4.10;;;1.50;;
44169;SDS011;29836;52.286;9.576;2022-12-07T10:44:47;1.40;;;0.73;;
44169;SDS011;29836;52.286;9.576;2022-12-07T10:53:04;2.72;;;1.10;;
44169;SDS011;29836;52.286;9.576;2022-12-07T11:01:25;3.83;;;0.90;;
44169;SDS011;29836;52.286;9.576;2022-12-07T11:04:15;2.78;;;1.02;;
44169;SDS011;29836;52.286;9.576;2022-12-07T11:06:54;5.00;;;1.42;;
44169;SDS011;29836;52.286;9.576;2022-12-07T11:13:00;4.97;;;1.08;;
44169;SDS011;29836;52.286;9.576;2022-12-07T11:15:26;3.05;;;1.00;;
44169;SDS011;29836;52.286;9.576;2022-12-07T11:20:34;3.50;;;1.20;;
44169;SDS011;29836;52.286;9.576;2022-12-07T11:23:16;2.88;;;1.13;;
44169;SDS011;29836;52.286;9.576;2022-12-07T11:34:04;3.75;;;1.40;;
44169;SDS011;29836;52.286;9.576;2022-12-07T11:36:45;1.35;;;1.00;;
44169;SDS011;29836;52.286;9.576;2022-12-07T11:41:44;2.97;;;0.70;;
44169;SDS011;29836;52.286;9.576;2022-12-07T11:46:59;6.95;;;1.20;;
44169;SDS011;29836;52.286;9.576;2022-12-07T11:52:39;1.23;;;0.80;;
44169;SDS011;29836;52.286;9.576;2022-12-07T11:55:19;4.47;;;1.37;;
44169;SDS011;29836;52.286;9.576;2022-12-07T11:57:57;2.22;;;1.08;;
44169;SDS011;29836;52.286;9.576;2022-12-07T12:00:28;1.05;;;0.95;;
44169;SDS011;29836;52.286;9.576;2022-12-07T12:02:56;1.45;;;1.00;;
44169;SDS011;29836;52.286;9.576;2022-12-07T12:05:23;2.75;;;1.30;;
44169;SDS011;29836;52.286;9.576;2022-12-07T12:07:52;2.05;;;1.20;;
44169;SDS011;29836;52.286;9.576;2022-12-07T12:10:38;5.50;;;1.00;;
44169;SDS011;29836;52.286;9.576;2022-12-07T12:16:36;1.75;;;1.10;;
44169;SDS011;29836;52.286;9.576;2022-12-07T12:19:22;5.30;;;1.23;;
44169;SDS011;29836;52.286;9.576;2022-12-07T12:21:56;2.70;;;1.10;;
44169;SDS011;29836;52.286;9.576;2022-12-07T12:24:30;2.40;;;1.17;;
44169;SDS011;29836;52.286;9.576;2022-12-07T12:27:05;2.95;;;1.50;;
44169;SDS011;29836;52.286;9.576;2022-12-07T12:29:35;5.47;;;1.58;;
44169;SDS011;29836;52.286;9.576;2022-12-07T12:32:12;2.42;;;1.38;;
44169;SDS011;29836;52.286;9.576;2022-12-07T12:37:38;3.90;;;1.35;;
44169;SDS011;29836;52.286;9.576;2022-12-07T12:42:49;3.80;;;1.48;;
44169;SDS011;29836;52.286;9.576;2022-12-07T12:45:25;4.18;;;1.33;;
44169;SDS011;29836;52.286;9.576;2022-12-07T12:47:53;4.38;;;1.13;;
44169;SDS011;29836;52.286;9.576;2022-12-07T12:50:27;6.10;;;1.20;;
44169;SDS011;29836;52.286;9.576;2022-12-07T12:53:01;6.22;;;1.48;;
44169;SDS011;29836;52.286;9.576;2022-12-07T13:00:49;2.55;;;1.23;;
44169;SDS011;29836;52.286;9.576;2022-12-07T13:03:53;5.50;;;1.30;;
44169;SDS011;29836;52.286;9.576;2022-12-07T13:06:31;2.83;;;1.10;;
44169;SDS011;29836;52.286;9.576;2022-12-07T13:09:00;4.43;;;1.20;;
44169;SDS011;29836;52.286;9.576;2022-12-07T13:11:37;5.10;;;1.33;;
44169;SDS011;29836;52.286;9.576;2022-12-07T13:17:02;2.97;;;0.90;;
44169;SDS011;29836;52.286;9.576;2022-12-07T13:27:30;1.10;;;1.00;;
44169;SDS011;29836;52.286;9.576;2022-12-07T13:29:58;6.55;;;1.45;;
44169;SDS011;29836;52.286;9.576;2022-12-07T13:32:28;4.10;;;1.10;;
44169;SDS011;29836;52.286;9.576;2022-12-07T13:34:55;4.07;;;0.98;;
44169;SDS011;29836;52.286;9.576;2022-12-07T13:37:23;4.47;;;1.38;;
44169;SDS011;29836;52.286;9.576;2022-12-07T13:39:58;2.30;;;0.95;;
44169;SDS011;29836;52.286;9.576;2022-12-07T13:44:54;3.25;;;1.10;;
44169;SDS011;29836;52.286;9.576;2022-12-07T13:47:38;3.38;;;1.30;;
44169;SDS011;29836;52.286;9.576;2022-12-07T13:50:26;5.30;;;1.35;;
44169;SDS011;29836;52.286;9.576;2022-12-07T13:53:00;3.45;;;0.95;;
44169;SDS011;29836;52.286;9.576;2022-12-07T13:55:26;5.65;;;1.13;;
44169;SDS011;29836;52.286;9.576;2022-12-07T13:57:55;2.38;;;1.30;;
44169;SDS011;29836;52.286;9.576;2022-12-07T14:00:22;4.15;;;1.20;;
44169;SDS011;29836;52.286;9.576;2022-12-07T14:05:41;10.50;;;1.48;;
44169;SDS011;29836;52.286;9.576;2022-12-07T14:10:40;23.75;;;1.83;;
44169;SDS011;29836;52.286;9.576;2022-12-07T14:13:29;1.23;;;0.60;;
44169;SDS011;29836;52.286;9.576;2022-12-07T14:16:05;2.92;;;0.80;;
44169;SDS011;29836;52.286;9.576;2022-12-07T14:18:40;9.00;;;1.33;;
44169;SDS011;29836;52.286;9.576;2022-12-07T14:21:14;4.55;;;1.05;;
44169;SDS011;29836;52.286;9.576;2022-12-07T14:23:43;7.75;;;1.55;;
44169;SDS011;29836;52.286;9.576;2022-12-07T14:26:13;2.65;;;1.20;;
44169;SDS011;29836;52.286;9.576;2022-12-07T14:28:40;3.83;;;1.02;;
44169;SDS011;29836;52.286;9.576;2022-12-07T14:31:10;2.88;;;1.00;;
44169;SDS011;29836;52.286;9.576;2022-12-07T14:33:38;1.38;;;1.10;;
44169;SDS011;29836;52.286;9.576;2022-12-07T14:36:04;3.13;;;1.15;;
44169;SDS011;29836;52.286;9.576;2022-12-07T14:38:30;4.40;;;1.17;;
44169;SDS011;29836;52.286;9.576;2022-12-07T14:40:55;3.80;;;1.02;;
44169;SDS011;29836;52.286;9.576;2022-12-07T14:43:44;3.50;;;0.90;;
44169;SDS011;29836;52.286;9.576;2022-12-07T14:46:10;3.28;;;1.48;;
44169;SDS011;29836;52.286;9.576;2022-12-07T14:48:36;3.45;;;1.00;;
44169;SDS011;29836;52.286;9.576;2022-12-07T14:51:01;7.47;;;1.10;;
44169;SDS011;29836;52.286;9.576;2022-12-07T14:53:30;6.50;;;1.63;;
44169;SDS011;29836;52.286;9.576;2022-12-07T14:55:59;4.10;;;1.25;;
44169;SDS011;29836;52.286;9.576;2022-12-07T14:58:25;3.92;;;1.65;;
44169;SDS011;29836;52.286;9.576;2022-12-07T15:00:52;4.95;;;1.17;;
44169;SDS011;29836;52.286;9.576;2022-12-07T15:03:17;8.02;;;1.67;;
44169;SDS011;29836;52.286;9.576;2022-12-07T15:05:43;2.90;;;1.55;;
44169;SDS011;29836;52.286;9.576;2022-12-07T15:08:10;1.02;;;0.77;;
44169;SDS011;29836;52.286;9.576;2022-12-07T15:10:37;4.90;;;1.25;;
44169;SDS011;29836;52.286;9.576;2022-12-07T15:13:03;2.53;;;0.82;;
44169;SDS011;29836;52.286;9.576;2022-12-07T15:15:48;1.95;;;0.75;;
44169;SDS011;29836;52.286;9.576;2022-12-07T15:18:15;3.53;;;1.33;;
44169;SDS011;29836;52.286;9.576;2022-12-07T15:20:41;1.13;;;0.90;;
44169;SDS011;29836;52.286;9.576;2022-12-07T15:23:07;4.00;;;1.25;;
44169;SDS011;29836;52.286;9.576;2022-12-07T15:25:34;5.10;;;1.55;;
44169;SDS011;29836;52.286;9.576;2022-12-07T15:27:59;2.20;;;1.10;;
44169;SDS011;29836;52.286;9.576;2022-12-07T15:30:25;2.63;;;0.98;;
44169;SDS011;29836;52.286;9.576;2022-12-07T15:32:51;6.60;;;1.58;;
44169;SDS011;29836;52.286;9.576;2022-12-07T15:35:18;2.80;;;1.50;;
44169;SDS011;29836;52.286;9.576;2022-12-07T15:37:44;8.90;;;1.58;;
44169;SDS011;29836;52.286;9.576;2022-12-07T15:40:09;3.85;;;1.77;;
44169;SDS011;29836;52.286;9.576;2022-12-07T15:42:36;18.80;;;1.70;;
44169;SDS011;29836;52.286;9.576;2022-12-07T15:45:02;2.75;;;1.45;;
44169;SDS011;29836;52.286;9.576;2022-12-07T15:47:28;4.72;;;2.40;;
44169;SDS011;29836;52.286;9.576;2022-12-07T15:49:54;6.65;;;2.35;;
44169;SDS011;29836;52.286;9.576;2022-12-07T15:52:20;4.57;;;1.88;;
44169;SDS011;29836;52.286;9.576;2022-12-07T15:54:46;8.75;;;2.03;;
44169;SDS011;29836;52.286;9.576;2022-12-07T15:57:12;8.73;;;1.75;;
44169;SDS011;29836;52.286;9.576;2022-12-07T15:59:38;10.02;;;2.60;;
44169;SDS011;29836;52.286;9.576;2022-12-07T16:02:04;4.15;;;1.33;;
44169;SDS011;29836;52.286;9.576;2022-12-07T16:04:29;6.95;;;1.42;;
44169;SDS011;29836;52.286;9.576;2022-12-07T16:06:55;4.22;;;1.85;;
44169;SDS011;29836;52.286;9.576;2022-12-07T16:09:21;6.63;;;2.05;;
44169;SDS011;29836;52.286;9.576;2022-12-07T16:11:47;5.55;;;2.05;;
44169;SDS011;29836;52.286;9.576;2022-12-07T16:14:12;7.15;;;2.38;;
44169;SDS011;29836;52.286;9.576;2022-12-07T16:16:38;10.02;;;2.60;;
44169;SDS011;29836;52.286;9.576;2022-12-07T16:19:05;7.63;;;2.72;;
44169;SDS011;29836;52.286;9.576;2022-12-07T16:21:32;6.60;;;2.63;;
44169;SDS011;29836;52.286;9.576;2022-12-07T16:23:59;6.28;;;2.10;;
44169;SDS011;29836;52.286;9.576;2022-12-07T16:26:25;3.35;;;1.50;;
44169;SDS011;29836;52.286;9.576;2022-12-07T16:28:51;5.60;;;2.42;;
44169;SDS011;29836;52.286;9.576;2022-12-07T16:31:18;4.57;;;2.60;;
44169;SDS011;29836;52.286;9.576;2022-12-07T16:33:45;4.43;;;2.53;;
44169;SDS011;29836;52.286;9.576;2022-12-07T16:36:12;5.25;;;2.70;;